Time;durP1;ratioP1;P1;durP2;ratioP2;P2;SDS_P1;SDS_P2;PMS_P1;PMS_P2;Temp;Humidity;BMP_temperature;BMP_pressure;BME280_temperature;BME280_humidity;BME280_pressure;Samples;Min_cycle;Max_cycle;Signal;HPM_P1;HPM_P2
2022/10/10 00:00:23;;;;;;;3.83;2.00;;;;;;;;;;5073120;28;20555;-50
2022/10/10 00:02:50;;;;;;;5.20;2.57;;;;;;;;;;5073802;28;20279;-49
2022/10/10 00:05:16;;;;;;;5.23;1.90;;;;;;;;;;5074379;28;20314;-49
2022/10/10 00:07:44;;;;;;;3.97;2.20;;;;;;;;;;5073649;28;20303;-49
2022/10/10 00:10:10;;;;;;;5.97;2.20;;;;;;;;;;5074241;28;20206;-50
2022/10/10 00:12:36;;;;;;;3.00;1.90;;;;;;;;;;5073933;28;20200;-49
2022/10/10 00:15:02;;;;;;;4.23;2.20;;;;;;;;;;5074079;28;20225;-49
2022/10/10 00:17:28;;;;;;;2.57;1.73;;;;;;;;;;5074074;28;20231;-48
2022/10/10 00:19:56;;;;;;;4.27;2.47;;;;;;;;;;5073591;28;20188;-48
2022/10/10 00:22:22;;;;;;;5.37;2.00;;;;;;;;;;5074017;28;20238;-48
2022/10/10 00:24:48;;;;;;;3.80;2.10;;;;;;;;;;5073705;28;20223;-48
2022/10/10 00:27:14;;;;;;;3.30;1.97;;;;;;;;;;5074009;28;20200;-52
2022/10/10 00:29:40;;;;;;;4.77;2.23;;;;;;;;;;5071687;28;20715;-49
2022/10/10 00:32:06;;;;;;;4.20;2.43;;;;;;;;;;5072114;28;20211;-49
2022/10/10 00:34:33;;;;;;;4.37;2.00;;;;;;;;;;5073756;28;20222;-49
2022/10/10 00:37:00;;;;;;;3.87;2.07;;;;;;;;;;5073460;28;20224;-49
2022/10/10 00:39:26;;;;;;;2.30;1.83;;;;;;;;;;5073244;28;20617;-50
2022/10/10 00:41:52;;;;;;;3.60;1.83;;;;;;;;;;5073447;28;20264;-50
2022/10/10 00:44:18;;;;;;;3.30;2.03;;;;;;;;;;5073439;28;20529;-50
2022/10/10 00:46:44;;;;;;;3.60;2.07;;;;;;;;;;5070551;28;20241;-49
2022/10/10 00:49:12;;;;;;;2.43;1.97;;;;;;;;;;5072732;28;20249;-49
2022/10/10 00:51:38;;;;;;;3.30;2.17;;;;;;;;;;5072615;28;20314;-49
2022/10/10 00:54:08;;;;;;;4.57;2.17;;;;;;;;;;5072099;28;20226;-49
2022/10/10 00:56:37;;;;;;;4.73;2.43;;;;;;;;;;5072622;28;20255;-49
2022/10/10 00:59:04;;;;;;;2.07;1.90;;;;;;;;;;5072749;28;20259;-50
2022/10/10 01:01:30;;;;;;;2.83;2.07;;;;;;;;;;5072816;28;20195;-49
2022/10/10 01:03:56;;;;;;;3.60;2.40;;;;;;;;;;5072241;28;20725;-50
2022/10/10 01:06:23;;;;;;;3.20;2.17;;;;;;;;;;5072418;28;20230;-49
2022/10/10 01:08:49;;;;;;;3.33;1.90;;;;;;;;;;5070640;28;20223;-49
2022/10/10 01:11:23;;;;;;;2.10;1.80;;;;;;;;;;5072303;28;20273;-49
2022/10/10 01:13:52;;;;;;;2.10;1.90;;;;;;;;;;5071840;28;20194;-49
2022/10/10 01:16:23;;;;;;;2.67;2.13;;;;;;;;;;5071803;28;20227;-49
2022/10/10 01:18:51;;;;;;;3.23;1.87;;;;;;;;;;5071949;28;20187;-49
2022/10/10 01:21:21;;;;;;;3.03;2.17;;;;;;;;;;5072318;28;20218;-48
2022/10/10 01:24:11;;;;;;;3.13;2.13;;;;;;;;;;5071454;28;20204;-49
2022/10/10 01:26:53;;;;;;;3.40;2.00;;;;;;;;;;5071959;28;20203;-49
2022/10/10 01:29:25;;;;;;;5.37;2.10;;;;;;;;;;5072271;28;20207;-49
2022/10/10 01:31:52;;;;;;;3.47;1.97;;;;;;;;;;5071908;28;20204;-49
2022/10/10 01:34:22;;;;;;;4.77;2.23;;;;;;;;;;5072116;28;20206;-48
2022/10/10 01:36:51;;;;;;;2.40;2.00;;;;;;;;;;5071490;28;20322;-49
2022/10/10 01:39:20;;;;;;;6.20;2.20;;;;;;;;;;5072019;28;20199;-49
2022/10/10 01:41:50;;;;;;;2.53;2.00;;;;;;;;;;5071902;28;20296;-49
2022/10/10 01:44:16;;;;;;;3.93;2.00;;;;;;;;;;5071631;28;20677;-48
2022/10/10 01:46:43;;;;;;;4.10;2.27;;;;;;;;;;5071029;28;20211;-49
2022/10/10 01:49:09;;;;;;;4.37;2.10;;;;;;;;;;5071767;28;20274;-49
2022/10/10 01:51:47;;;;;;;2.53;2.20;;;;;;;;;;5071734;28;20590;-49
2022/10/10 01:54:20;;;;;;;2.87;2.10;;;;;;;;;;5071840;28;20227;-49
2022/10/10 01:56:48;;;;;;;4.20;2.10;;;;;;;;;;5071549;28;20559;-49
2022/10/10 01:59:20;;;;;;;3.73;1.90;;;;;;;;;;5071886;28;20203;-50
2022/10/10 02:01:50;;;;;;;4.53;2.50;;;;;;;;;;5071732;28;20620;-50
2022/10/10 02:04:22;;;;;;;3.60;2.17;;;;;;;;;;5071625;28;20199;-50
2022/10/10 02:06:50;;;;;;;2.83;1.97;;;;;;;;;;5070225;28;20187;-49
2022/10/10 02:09:19;;;;;;;2.93;2.07;;;;;;;;;;5070708;28;20591;-49
2022/10/10 02:11:45;;;;;;;2.63;2.00;;;;;;;;;;5071333;28;20271;-49
2022/10/10 02:14:14;;;;;;;2.97;1.90;;;;;;;;;;5071514;28;20200;-49
2022/10/10 02:16:41;;;;;;;3.87;2.17;;;;;;;;;;5071352;28;20223;-49
2022/10/10 02:19:11;;;;;;;3.53;2.70;;;;;;;;;;5071622;28;20195;-49
2022/10/10 02:21:38;;;;;;;2.77;2.30;;;;;;;;;;5071403;28;20235;-48
2022/10/10 02:24:06;;;;;;;4.13;2.40;;;;;;;;;;5071493;28;20199;-49
2022/10/10 02:26:33;;;;;;;2.57;1.90;;;;;;;;;;5071262;28;20662;-49
2022/10/10 02:29:00;;;;;;;4.87;1.87;;;;;;;;;;5071163;28;20213;-48
2022/10/10 02:31:27;;;;;;;2.27;2.00;;;;;;;;;;5071150;28;20665;-49
2022/10/10 02:33:55;;;;;;;2.73;2.00;;;;;;;;;;5070908;28;20203;-49
2022/10/10 02:36:23;;;;;;;4.17;2.40;;;;;;;;;;5071142;28;20310;-49
2022/10/10 02:38:49;;;;;;;3.20;2.07;;;;;;;;;;5070217;28;20203;-48
2022/10/10 02:41:17;;;;;;;2.87;2.10;;;;;;;;;;5071103;28;20226;-49
2022/10/10 02:43:44;;;;;;;3.97;2.30;;;;;;;;;;5071088;28;20199;-48
2022/10/10 02:46:12;;;;;;;3.00;2.13;;;;;;;;;;5071130;28;20589;-49
2022/10/10 02:48:38;;;;;;;2.27;1.90;;;;;;;;;;5071060;28;20243;-49
2022/10/10 02:51:04;;;;;;;3.20;1.90;;;;;;;;;;5071276;28;20231;-49
2022/10/10 02:53:32;;;;;;;4.70;2.30;;;;;;;;;;5071171;28;20249;-48
2022/10/10 02:55:58;;;;;;;4.17;2.33;;;;;;;;;;5070496;28;20591;-49
2022/10/10 02:58:24;;;;;;;2.90;2.00;;;;;;;;;;5071139;28;20662;-48
2022/10/10 03:00:50;;;;;;;5.50;2.20;;;;;;;;;;5070087;28;20206;-49
2022/10/10 03:03:16;;;;;;;3.50;2.40;;;;;;;;;;5070972;28;20719;-48
2022/10/10 03:05:42;;;;;;;3.23;2.60;;;;;;;;;;5070837;28;20658;-49
2022/10/10 03:08:09;;;;;;;4.67;2.30;;;;;;;;;;5070887;28;20219;-49
2022/10/10 03:10:36;;;;;;;3.07;2.43;;;;;;;;;;5070973;28;20204;-48
2022/10/10 03:13:02;;;;;;;5.70;2.33;;;;;;;;;;5070663;28;20686;-49
2022/10/10 03:15:28;;;;;;;2.93;2.20;;;;;;;;;;5070341;28;20215;-48
2022/10/10 03:17:54;;;;;;;3.87;2.10;;;;;;;;;;5072509;28;20255;-49
2022/10/10 03:20:20;;;;;;;5.60;2.37;;;;;;;;;;5074452;28;20202;-49
2022/10/10 03:22:46;;;;;;;3.00;2.10;;;;;;;;;;5073453;28;20230;-49
2022/10/10 03:25:12;;;;;;;3.53;2.30;;;;;;;;;;5074564;28;20225;-49
2022/10/10 03:27:40;;;;;;;3.00;2.40;;;;;;;;;;5074405;28;20729;-49
2022/10/10 03:30:06;;;;;;;3.57;2.57;;;;;;;;;;5074615;28;20204;-49
2022/10/10 03:32:32;;;;;;;4.50;2.60;;;;;;;;;;5074437;28;20195;-49
2022/10/10 03:34:58;;;;;;;4.00;3.30;;;;;;;;;;5073937;28;20203;-49
2022/10/10 03:37:24;;;;;;;7.23;6.40;;;;;;;;;;5074058;28;20234;-49
2022/10/10 03:39:51;;;;;;;6.77;6.10;;;;;;;;;;5073730;28;20199;-49
2022/10/10 03:42:17;;;;;;;5.37;4.77;;;;;;;;;;5074238;28;20199;-49
2022/10/10 03:44:44;;;;;;;4.20;3.80;;;;;;;;;;5073486;28;20594;-49
2022/10/10 03:47:10;;;;;;;3.97;3.00;;;;;;;;;;5074050;28;20203;-49
2022/10/10 03:49:36;;;;;;;3.50;3.20;;;;;;;;;;5074019;28;20334;-49
2022/10/10 03:52:02;;;;;;;3.73;2.90;;;;;;;;;;5074147;28;20286;-49
2022/10/10 03:54:28;;;;;;;4.93;2.93;;;;;;;;;;5074117;28;20199;-49
2022/10/10 03:56:54;;;;;;;3.23;2.53;;;;;;;;;;5073925;28;20227;-48
2022/10/10 03:59:21;;;;;;;3.73;3.13;;;;;;;;;;5074061;28;20669;-48
2022/10/10 04:01:48;;;;;;;5.07;3.00;;;;;;;;;;5073991;28;20932;-48
2022/10/10 04:04:14;;;;;;;4.00;2.73;;;;;;;;;;5073726;28;20298;-48
2022/10/10 04:06:40;;;;;;;3.77;2.90;;;;;;;;;;5073801;28;20811;-48
2022/10/10 04:09:07;;;;;;;5.80;3.00;;;;;;;;;;5073594;28;20519;-49
2022/10/10 04:11:35;;;;;;;3.17;2.67;;;;;;;;;;5073733;28;20521;-48
2022/10/10 04:14:01;;;;;;;6.13;3.33;;;;;;;;;;5073574;28;20223;-49
2022/10/10 04:16:27;;;;;;;4.50;2.77;;;;;;;;;;5073654;28;20473;-48
2022/10/10 04:18:54;;;;;;;4.83;2.77;;;;;;;;;;5073562;28;20245;-48
2022/10/10 04:21:20;;;;;;;4.97;2.97;;;;;;;;;;5073420;28;20626;-48
2022/10/10 04:23:46;;;;;;;5.87;2.90;;;;;;;;;;5073399;28;20595;-49
2022/10/10 04:26:12;;;;;;;3.23;2.53;;;;;;;;;;5073320;28;20477;-48
2022/10/10 04:28:38;;;;;;;5.07;3.00;;;;;;;;;;5072560;28;20253;-49
2022/10/10 04:31:05;;;;;;;3.17;2.83;;;;;;;;;;5072317;28;20207;-48
2022/10/10 04:33:31;;;;;;;3.97;2.60;;;;;;;;;;5070589;28;20484;-49
2022/10/10 04:35:58;;;;;;;2.77;2.40;;;;;;;;;;5072135;28;20290;-49
2022/10/10 04:38:24;;;;;;;4.40;2.50;;;;;;;;;;5073357;28;20290;-48
2022/10/10 04:40:50;;;;;;;2.80;2.50;;;;;;;;;;5073355;28;20469;-49
2022/10/10 04:43:17;;;;;;;3.50;2.30;;;;;;;;;;5073141;28;20188;-49
2022/10/10 04:45:43;;;;;;;3.33;2.37;;;;;;;;;;5072412;28;20488;-48
2022/10/10 04:48:09;;;;;;;3.63;2.80;;;;;;;;;;5071378;28;20951;-48
2022/10/10 04:50:35;;;;;;;3.07;2.50;;;;;;;;;;5072443;28;20239;-48
2022/10/10 04:53:02;;;;;;;3.23;2.60;;;;;;;;;;5072741;28;20679;-49
2022/10/10 04:55:28;;;;;;;4.77;2.83;;;;;;;;;;5072807;28;20464;-48
2022/10/10 04:57:54;;;;;;;4.53;2.63;;;;;;;;;;5072250;28;20227;-49
2022/10/10 05:00:20;;;;;;;4.20;2.83;;;;;;;;;;5072659;28;20624;-49
2022/10/10 05:02:46;;;;;;;4.87;2.73;;;;;;;;;;5072225;28;20200;-48
2022/10/10 05:05:12;;;;;;;3.93;2.80;;;;;;;;;;5072297;28;20499;-48
2022/10/10 05:07:38;;;;;;;2.67;2.37;;;;;;;;;;5072356;28;20450;-52
2022/10/10 05:10:07;;;;;;;3.97;2.50;;;;;;;;;;5071620;28;20461;-48
2022/10/10 05:12:33;;;;;;;2.70;2.43;;;;;;;;;;5072008;28;20230;-48
2022/10/10 05:14:59;;;;;;;4.67;2.67;;;;;;;;;;5071948;28;20469;-48
2022/10/10 05:17:25;;;;;;;3.97;2.40;;;;;;;;;;5072247;28;20566;-49
2022/10/10 05:19:51;;;;;;;2.97;2.50;;;;;;;;;;5071339;28;20192;-49
2022/10/10 05:22:17;;;;;;;4.37;2.63;;;;;;;;;;5072099;28;20441;-49
2022/10/10 05:24:43;;;;;;;3.33;2.77;;;;;;;;;;5071445;28;20277;-49
2022/10/10 05:27:10;;;;;;;4.53;2.90;;;;;;;;;;5072160;28;20499;-49
2022/10/10 05:29:36;;;;;;;2.97;2.43;;;;;;;;;;5071992;28;20449;-49
2022/10/10 05:32:02;;;;;;;5.83;2.67;;;;;;;;;;5071459;28;20203;-48
2022/10/10 05:34:28;;;;;;;4.97;2.90;;;;;;;;;;5070766;28;20976;-49
2022/10/10 05:36:55;;;;;;;5.40;3.63;;;;;;;;;;5070267;28;20640;-48
2022/10/10 05:39:21;;;;;;;7.70;3.93;;;;;;;;;;5071440;28;20215;-48
2022/10/10 05:41:47;;;;;;;5.70;4.10;;;;;;;;;;5071628;28;20438;-49
2022/10/10 05:44:15;;;;;;;5.93;4.97;;;;;;;;;;5071805;28;20199;-48
2022/10/10 05:46:41;;;;;;;7.17;4.70;;;;;;;;;;5071668;28;20533;-48
2022/10/10 05:49:07;;;;;;;6.47;5.07;;;;;;;;;;5069986;28;20473;-48
2022/10/10 05:51:33;;;;;;;6.27;5.30;;;;;;;;;;5070100;28;20207;-48
2022/10/10 05:53:59;;;;;;;6.23;4.27;;;;;;;;;;5071384;28;20499;-48
2022/10/10 05:56:25;;;;;;;4.77;4.27;;;;;;;;;;5071368;28;20481;-49
2022/10/10 05:58:51;;;;;;;4.30;3.37;;;;;;;;;;5071220;28;20437;-49
2022/10/10 06:01:18;;;;;;;4.10;3.70;;;;;;;;;;5071510;28;20916;-49
2022/10/10 06:03:45;;;;;;;6.53;3.87;;;;;;;;;;5071515;28;20985;-49
2022/10/10 06:06:11;;;;;;;8.73;4.80;;;;;;;;;;5071273;28;20463;-49
2022/10/10 06:08:37;;;;;;;6.97;3.63;;;;;;;;;;5070791;28;20462;-49
2022/10/10 06:11:04;;;;;;;5.13;3.77;;;;;;;;;;5071600;28;20183;-49
2022/10/10 06:13:30;;;;;;;5.10;4.20;;;;;;;;;;5071495;28;20199;-49
2022/10/10 06:15:57;;;;;;;7.73;4.07;;;;;;;;;;5071405;28;20429;-50
2022/10/10 06:18:24;;;;;;;6.00;3.73;;;;;;;;;;5071445;28;20547;-48
2022/10/10 06:20:50;;;;;;;5.03;3.30;;;;;;;;;;5070094;28;20943;-50
2022/10/10 06:23:17;;;;;;;4.13;3.50;;;;;;;;;;5070788;28;20516;-49
2022/10/10 06:25:43;;;;;;;6.13;3.60;;;;;;;;;;5071087;28;20868;-49
2022/10/10 06:28:09;;;;;;;5.73;3.53;;;;;;;;;;5071758;28;20418;-50
2022/10/10 06:30:38;;;;;;;5.20;3.30;;;;;;;;;;5071593;28;20287;-49
2022/10/10 06:33:04;;;;;;;3.43;3.13;;;;;;;;;;5070653;28;20521;-49
2022/10/10 06:35:32;;;;;;;4.37;3.50;;;;;;;;;;5069392;28;20948;-49
2022/10/10 06:37:58;;;;;;;4.17;3.20;;;;;;;;;;5069464;28;20885;-49
2022/10/10 06:40:24;;;;;;;5.57;3.70;;;;;;;;;;5069992;28;20437;-48
2022/10/10 06:42:50;;;;;;;3.83;3.40;;;;;;;;;;5070955;28;20203;-49
2022/10/10 06:45:16;;;;;;;6.43;4.67;;;;;;;;;;5070766;28;20434;-48
2022/10/10 06:47:42;;;;;;;7.20;4.53;;;;;;;;;;5069597;28;20256;-49
2022/10/10 06:50:08;;;;;;;5.73;4.20;;;;;;;;;;5070439;28;20245;-49
2022/10/10 06:52:35;;;;;;;7.10;4.17;;;;;;;;;;5071920;28;20685;-50
2022/10/10 06:55:01;;;;;;;6.07;3.70;;;;;;;;;;5074936;28;20481;-49
2022/10/10 06:57:28;;;;;;;5.50;3.90;;;;;;;;;;5073840;28;20266;-49
2022/10/10 06:59:54;;;;;;;5.87;3.10;;;;;;;;;;5074368;28;20199;-50
2022/10/10 07:02:21;;;;;;;4.37;3.17;;;;;;;;;;5074622;28;20200;-49
2022/10/10 07:04:47;;;;;;;4.27;2.80;;;;;;;;;;5074613;28;20219;-49
2022/10/10 07:07:13;;;;;;;6.47;3.97;;;;;;;;;;5072637;28;20265;-49
2022/10/10 07:09:41;;;;;;;5.03;3.27;;;;;;;;;;5074817;28;20200;-48
2022/10/10 07:12:07;;;;;;;3.60;3.10;;;;;;;;;;5074277;28;20199;-49
2022/10/10 07:14:33;;;;;;;3.50;3.17;;;;;;;;;;5074784;28;20191;-49
2022/10/10 07:16:59;;;;;;;3.50;3.20;;;;;;;;;;5073133;28;20218;-49
2022/10/10 07:19:26;;;;;;;3.70;3.00;;;;;;;;;;5074407;28;20543;-49
2022/10/10 07:21:52;;;;;;;4.37;2.70;;;;;;;;;;5073908;28;20196;-50
2022/10/10 07:24:18;;;;;;;3.83;2.90;;;;;;;;;;5074504;28;20198;-50
2022/10/10 07:26:46;;;;;;;4.23;2.83;;;;;;;;;;5074048;28;20211;-49
2022/10/10 07:29:12;;;;;;;6.53;3.10;;;;;;;;;;5074027;28;20195;-49
2022/10/10 07:31:38;;;;;;;2.97;2.50;;;;;;;;;;5072621;28;20310;-49
2022/10/10 07:34:05;;;;;;;4.70;2.67;;;;;;;;;;5073807;28;20206;-48
2022/10/10 07:36:31;;;;;;;8.23;2.77;;;;;;;;;;5074311;28;20315;-49
2022/10/10 07:38:57;;;;;;;4.13;2.60;;;;;;;;;;5073411;28;20278;-50
2022/10/10 07:41:23;;;;;;;5.67;2.90;;;;;;;;;;5073192;28;20636;-48
2022/10/10 07:43:54;;;;;;;3.03;2.13;;;;;;;;;;5073666;28;20239;-48
2022/10/10 07:46:20;;;;;;;2.80;2.10;;;;;;;;;;5071984;28;20279;-49
2022/10/10 07:48:48;;;;;;;2.80;2.40;;;;;;;;;;5072921;28;20240;-48
2022/10/10 07:51:14;;;;;;;5.10;2.50;;;;;;;;;;5073287;28;20195;-48
2022/10/10 07:53:42;;;;;;;4.20;2.53;;;;;;;;;;5073108;28;20741;-48
2022/10/10 07:56:08;;;;;;;3.80;2.20;;;;;;;;;;5073654;28;20221;-49
2022/10/10 07:58:34;;;;;;;3.60;2.10;;;;;;;;;;5073711;28;20234;-48
2022/10/10 08:01:03;;;;;;;5.67;2.60;;;;;;;;;;5073360;28;20618;-48
2022/10/10 08:03:29;;;;;;;3.53;2.43;;;;;;;;;;5072267;28;20215;-48
2022/10/10 08:05:55;;;;;;;3.93;2.53;;;;;;;;;;5073482;28;20249;-49
2022/10/10 08:08:21;;;;;;;4.17;2.47;;;;;;;;;;5073760;28;20261;-48
2022/10/10 08:10:47;;;;;;;4.37;2.70;;;;;;;;;;5072752;28;20199;-49
2022/10/10 08:13:13;;;;;;;2.63;2.00;;;;;;;;;;5072884;28;20210;-46
2022/10/10 08:15:39;;;;;;;3.03;1.87;;;;;;;;;;5072125;28;20641;-49
2022/10/10 08:18:07;;;;;;;2.37;2.13;;;;;;;;;;5072813;28;20293;-47
2022/10/10 08:20:33;;;;;;;2.93;2.00;;;;;;;;;;5072242;28;20560;-47
2022/10/10 08:22:59;;;;;;;3.53;2.03;;;;;;;;;;5072012;28;20191;-48
2022/10/10 08:25:25;;;;;;;3.47;2.27;;;;;;;;;;5073428;28;20203;-49
2022/10/10 08:27:51;;;;;;;2.10;1.90;;;;;;;;;;5073101;28;20188;-50
2022/10/10 08:30:17;;;;;;;4.53;2.10;;;;;;;;;;5072766;28;20195;-49
2022/10/10 08:32:43;;;;;;;2.63;1.90;;;;;;;;;;5072347;28;20650;-49
2022/10/10 08:35:10;;;;;;;2.90;2.07;;;;;;;;;;5072547;28;20554;-50
2022/10/10 08:37:36;;;;;;;3.17;2.10;;;;;;;;;;5072810;28;20626;-49
2022/10/10 08:40:03;;;;;;;4.10;2.07;;;;;;;;;;5070649;28;20199;-49
2022/10/10 08:42:31;;;;;;;3.83;1.93;;;;;;;;;;5073143;28;20203;-49
2022/10/10 08:45:00;;;;;;;4.47;2.60;;;;;;;;;;5071803;28;20249;-49
2022/10/10 08:47:31;;;;;;;3.37;2.20;;;;;;;;;;5073205;28;20203;-49
2022/10/10 08:49:58;;;;;;;3.43;2.03;;;;;;;;;;5073009;28;20610;-48
2022/10/10 08:52:29;;;;;;;2.73;1.60;;;;;;;;;;5073287;28;20195;-48
2022/10/10 08:54:56;;;;;;;4.27;1.93;;;;;;;;;;5073053;28;20678;-49
2022/10/10 08:57:23;;;;;;;5.40;2.33;;;;;;;;;;5073140;28;20254;-49
2022/10/10 08:59:51;;;;;;;4.27;2.17;;;;;;;;;;5073057;28;20284;-48
2022/10/10 09:02:24;;;;;;;4.40;2.10;;;;;;;;;;5073076;28;20603;-49
2022/10/10 09:04:50;;;;;;;6.07;1.87;;;;;;;;;;5072894;28;20316;-49
2022/10/10 09:07:23;;;;;;;2.97;2.10;;;;;;;;;;5072723;28;20214;-48
2022/10/10 09:09:53;;;;;;;5.87;2.57;;;;;;;;;;5067699;28;20205;-48
2022/10/10 09:12:26;;;;;;;6.63;3.23;;;;;;;;;;5072369;28;20200;-50
2022/10/10 09:14:55;;;;;;;5.00;2.50;;;;;;;;;;5071606;28;20567;-49
2022/10/10 09:17:35;;;;;;;10.93;5.17;;;;;;;;;;5072535;28;20709;-49
2022/10/10 09:20:07;;;;;;;4.83;3.00;;;;;;;;;;5072663;28;20677;-49
2022/10/10 09:22:34;;;;;;;14.03;5.17;;;;;;;;;;5070916;28;20184;-49
2022/10/10 09:25:05;;;;;;;2.83;1.93;;;;;;;;;;5071443;28;20240;-49
2022/10/10 09:27:33;;;;;;;4.90;2.30;;;;;;;;;;5072328;28;20615;-49
2022/10/10 09:30:02;;;;;;;3.07;1.90;;;;;;;;;;5072516;28;20208;-49
2022/10/10 09:32:31;;;;;;;3.50;1.80;;;;;;;;;;5070654;28;20604;-49
2022/10/10 09:34:59;;;;;;;4.00;2.13;;;;;;;;;;5071888;28;20193;-49
2022/10/10 09:37:29;;;;;;;3.73;1.70;;;;;;;;;;5070418;28;20582;-49
2022/10/10 09:39:57;;;;;;;5.60;2.00;;;;;;;;;;5071480;28;20207;-50
2022/10/10 09:42:29;;;;;;;3.60;2.03;;;;;;;;;;5071519;28;20200;-49
2022/10/10 09:44:55;;;;;;;3.47;2.10;;;;;;;;;;5071624;28;20697;-51
2022/10/10 09:47:21;;;;;;;2.73;1.90;;;;;;;;;;5071906;28;20200;-48
2022/10/10 09:49:47;;;;;;;3.30;2.10;;;;;;;;;;5071487;28;20242;-50
2022/10/10 09:52:21;;;;;;;7.20;2.10;;;;;;;;;;5071917;28;20297;-50
2022/10/10 09:54:48;;;;;;;3.63;2.30;;;;;;;;;;5071733;28;20245;-49
2022/10/10 09:57:15;;;;;;;3.70;2.50;;;;;;;;;;5071502;28;20242;-51
2022/10/10 09:59:44;;;;;;;4.43;2.03;;;;;;;;;;5071696;28;20199;-50
2022/10/10 10:02:14;;;;;;;7.13;2.17;;;;;;;;;;5071634;28;20229;-50
2022/10/10 10:04:40;;;;;;;4.50;2.50;;;;;;;;;;5071437;28;20222;-50
2022/10/10 10:07:18;;;;;;;6.00;2.10;;;;;;;;;;5071575;28;20234;-50
2022/10/10 10:09:46;;;;;;;5.53;2.20;;;;;;;;;;5071673;28;20218;-50
2022/10/10 10:12:12;;;;;;;4.70;2.50;;;;;;;;;;5071596;28;20649;-50
2022/10/10 10:14:39;;;;;;;4.80;2.27;;;;;;;;;;5071592;28;20207;-50
2022/10/10 10:17:07;;;;;;;4.60;1.90;;;;;;;;;;5071314;28;20224;-50
2022/10/10 10:19:35;;;;;;;6.13;2.63;;;;;;;;;;5071709;28;20203;-50
2022/10/10 10:22:01;;;;;;;4.10;2.13;;;;;;;;;;5071041;28;20286;-49
2022/10/10 10:24:34;;;;;;;5.93;2.40;;;;;;;;;;5066310;28;20253;-50
2022/10/10 10:27:08;;;;;;;4.77;2.20;;;;;;;;;;5070121;28;20195;-51
2022/10/10 10:29:34;;;;;;;4.73;2.43;;;;;;;;;;5051577;28;20196;-50
2022/10/10 10:32:04;;;;;;;8.37;2.80;;;;;;;;;;5051182;28;20224;-50
2022/10/10 10:34:40;;;;;;;5.63;2.60;;;;;;;;;;5052462;28;20666;-50
2022/10/10 10:37:09;;;;;;;2.30;1.87;;;;;;;;;;5070337;28;20246;-50
2022/10/10 10:39:42;;;;;;;5.70;1.90;;;;;;;;;;5070978;28;20196;-49
2022/10/10 10:42:13;;;;;;;3.60;2.03;;;;;;;;;;5070866;28;20658;-50
2022/10/10 10:44:41;;;;;;;3.90;2.10;;;;;;;;;;5070941;28;20192;-50
2022/10/10 10:47:19;;;;;;;3.73;2.30;;;;;;;;;;5070800;28;20196;-49
2022/10/10 10:49:52;;;;;;;7.53;2.30;;;;;;;;;;5070660;28;20255;-50
2022/10/10 10:52:28;;;;;;;5.90;2.40;;;;;;;;;;5070887;28;20191;-49
2022/10/10 10:55:02;;;;;;;5.40;2.70;;;;;;;;;;5069129;28;20210;-50
2022/10/10 10:57:31;;;;;;;4.27;2.17;;;;;;;;;;5071007;28;20238;-49
2022/10/10 11:00:00;;;;;;;7.97;2.40;;;;;;;;;;5070598;28;20191;-50
2022/10/10 11:02:34;;;;;;;5.00;2.60;;;;;;;;;;5070898;28;20279;-49
2022/10/10 11:05:24;;;;;;;8.83;2.67;;;;;;;;;;5070832;28;20366;-49
2022/10/10 11:07:56;;;;;;;5.40;2.47;;;;;;;;;;5055266;28;20231;-50
2022/10/10 11:10:27;;;;;;;5.70;2.70;;;;;;;;;;5070238;28;20208;-50
2022/10/10 11:12:57;;;;;;;6.40;2.30;;;;;;;;;;5070775;28;20207;-50
2022/10/10 11:15:25;;;;;;;5.23;2.27;;;;;;;;;;5070512;28;20195;-50
2022/10/10 11:17:54;;;;;;;4.57;2.70;;;;;;;;;;5070700;28;20708;-50
2022/10/10 11:20:23;;;;;;;6.13;2.50;;;;;;;;;;5070676;28;20195;-50
2022/10/10 11:22:51;;;;;;;6.20;2.70;;;;;;;;;;5070547;28;20200;-50
2022/10/10 11:25:22;;;;;;;5.07;2.50;;;;;;;;;;5070464;28;20283;-49
2022/10/10 11:27:51;;;;;;;7.00;2.60;;;;;;;;;;5070329;28;20200;-49
2022/10/10 11:30:19;;;;;;;3.17;2.30;;;;;;;;;;5068295;28;20225;-49
2022/10/10 11:32:48;;;;;;;4.73;2.53;;;;;;;;;;5068016;28;20672;-48
2022/10/10 11:35:18;;;;;;;3.30;2.40;;;;;;;;;;5070646;28;20229;-49
2022/10/10 11:37:46;;;;;;;5.03;2.43;;;;;;;;;;5070287;28;20227;-50
2022/10/10 11:40:23;;;;;;;4.83;2.47;;;;;;;;;;5073013;28;20657;-49
2022/10/10 11:42:55;;;;;;;5.60;2.60;;;;;;;;;;5074135;28;20293;-49
2022/10/10 11:45:22;;;;;;;5.97;2.40;;;;;;;;;;5070653;28;20199;-49
2022/10/10 11:47:52;;;;;;;5.37;2.50;;;;;;;;;;5074047;28;20219;-50
2022/10/10 11:50:22;;;;;;;5.70;2.57;;;;;;;;;;5073928;28;20314;-49
2022/10/10 11:52:52;;;;;;;5.43;2.37;;;;;;;;;;5074107;28;20221;-49
2022/10/10 11:55:21;;;;;;;4.53;2.13;;;;;;;;;;5074332;28;20745;-50
2022/10/10 11:57:55;;;;;;;5.90;2.33;;;;;;;;;;5074020;28;20223;-50
2022/10/10 12:00:22;;;;;;;5.60;2.50;;;;;;;;;;5073884;28;20629;-50
2022/10/10 12:02:48;;;;;;;4.70;2.57;;;;;;;;;;5074075;28;20208;-50
2022/10/10 12:05:19;;;;;;;6.73;2.43;;;;;;;;;;5073796;28;20199;-49
2022/10/10 12:07:58;;;;;;;5.27;2.10;;;;;;;;;;5073609;28;20207;-50
2022/10/10 12:10:26;;;;;;;9.03;2.40;;;;;;;;;;5073818;28;20199;-50
2022/10/10 12:12:54;;;;;;;4.63;2.10;;;;;;;;;;5073521;28;20252;-50
2022/10/10 12:15:25;;;;;;;4.27;2.10;;;;;;;;;;5073575;28;20829;-50
2022/10/10 12:17:51;;;;;;;5.93;2.40;;;;;;;;;;5073411;28;20227;-50
2022/10/10 12:20:31;;;;;;;6.07;2.47;;;;;;;;;;5073511;28;20215;-50
2022/10/10 12:23:07;;;;;;;4.87;2.10;;;;;;;;;;5073530;28;20279;-49
2022/10/10 12:25:35;;;;;;;4.27;2.37;;;;;;;;;;5073701;28;20199;-49
2022/10/10 12:28:04;;;;;;;5.10;2.10;;;;;;;;;;5073343;28;20238;-49
2022/10/10 12:30:31;;;;;;;5.60;2.30;;;;;;;;;;5073433;28;20204;-50
2022/10/10 12:32:57;;;;;;;3.93;2.27;;;;;;;;;;5073045;28;20751;-49
2022/10/10 12:35:31;;;;;;;3.93;2.20;;;;;;;;;;5073605;28;20616;-49
2022/10/10 12:38:11;;;;;;;5.07;2.00;;;;;;;;;;5073046;28;20238;-50
2022/10/10 12:40:52;;;;;;;4.50;2.40;;;;;;;;;;5073404;28;20225;-49
2022/10/10 12:43:23;;;;;;;4.20;2.30;;;;;;;;;;5073043;28;20207;-50
2022/10/10 12:45:57;;;;;;;4.93;2.20;;;;;;;;;;5073252;28;20207;-50
2022/10/10 12:48:23;;;;;;;2.27;1.87;;;;;;;;;;5072836;28;20199;-49
2022/10/10 12:50:54;;;;;;;4.87;2.20;;;;;;;;;;5071731;28;20243;-49
2022/10/10 12:53:22;;;;;;;3.77;2.30;;;;;;;;;;5072839;28;20227;-49
2022/10/10 12:55:49;;;;;;;6.43;2.40;;;;;;;;;;5073111;28;20206;-49
2022/10/10 12:58:16;;;;;;;5.10;2.30;;;;;;;;;;5072751;28;20226;-49
2022/10/10 13:00:44;;;;;;;8.60;2.40;;;;;;;;;;5072805;28;20203;-49
2022/10/10 13:03:15;;;;;;;7.17;2.27;;;;;;;;;;5072614;28;20203;-49
2022/10/10 13:05:41;;;;;;;4.00;2.03;;;;;;;;;;5072804;28;20286;-49
2022/10/10 13:08:11;;;;;;;4.37;2.00;;;;;;;;;;5072587;28;20208;-49
2022/10/10 13:10:37;;;;;;;4.40;2.10;;;;;;;;;;5072377;28;20291;-48
2022/10/10 13:13:04;;;;;;;7.83;2.23;;;;;;;;;;5072875;28;20204;-48
2022/10/10 13:15:31;;;;;;;4.50;1.90;;;;;;;;;;5072620;28;20624;-48
2022/10/10 13:17:57;;;;;;;5.13;2.00;;;;;;;;;;5072395;28;20211;-47
2022/10/10 13:20:30;;;;;;;2.73;2.10;;;;;;;;;;5072361;28;20719;-49
2022/10/10 13:22:57;;;;;;;4.17;2.10;;;;;;;;;;5072337;28;20224;-48
2022/10/10 13:25:23;;;;;;;5.77;2.30;;;;;;;;;;5072327;28;20203;-47
2022/10/10 13:27:49;;;;;;;5.00;2.10;;;;;;;;;;5072328;28;20196;-49
2022/10/10 13:30:18;;;;;;;6.47;2.27;;;;;;;;;;5072117;28;20257;-50
2022/10/10 13:32:45;;;;;;;7.50;2.27;;;;;;;;;;5072230;28;20256;-50
2022/10/10 13:35:13;;;;;;;7.77;2.30;;;;;;;;;;5071899;28;20196;-49
2022/10/10 13:37:41;;;;;;;7.80;1.90;;;;;;;;;;5072033;28;20580;-49
2022/10/10 13:40:12;;;;;;;6.97;2.50;;;;;;;;;;5071887;28;20203;-49
2022/10/10 13:42:39;;;;;;;7.80;3.07;;;;;;;;;;5072154;28;20282;-49
2022/10/10 13:45:20;;;;;;;5.53;2.00;;;;;;;;;;5072037;28;20214;-49
2022/10/10 13:47:49;;;;;;;5.00;2.17;;;;;;;;;;5071798;28;20199;-46
2022/10/10 13:50:19;;;;;;;6.47;2.10;;;;;;;;;;5071654;28;20258;-46
2022/10/10 13:52:47;;;;;;;4.87;1.90;;;;;;;;;;5071779;28;20211;-61
2022/10/10 13:55:14;;;;;;;6.47;2.10;;;;;;;;;;5071769;28;20238;-48
2022/10/10 13:57:41;;;;;;;3.63;2.23;;;;;;;;;;5071288;28;20276;-48
2022/10/10 14:00:13;;;;;;;4.43;2.10;;;;;;;;;;5071248;28;20198;-49
2022/10/10 14:02:41;;;;;;;5.73;2.23;;;;;;;;;;5071660;28;20253;-46
2022/10/10 14:05:07;;;;;;;5.87;1.83;;;;;;;;;;5071807;28;20225;-47
2022/10/10 14:07:34;;;;;;;4.33;1.77;;;;;;;;;;5070917;28;20787;-49
2022/10/10 14:10:04;;;;;;;3.27;1.73;;;;;;;;;;5071868;28;20430;-47
2022/10/10 14:12:31;;;;;;;4.50;2.00;;;;;;;;;;5071474;28;20230;-47
2022/10/10 14:14:58;;;;;;;4.33;2.10;;;;;;;;;;5071717;28;20192;-47
2022/10/10 14:17:24;;;;;;;4.83;2.00;;;;;;;;;;5071485;28;20227;-48
2022/10/10 14:19:50;;;;;;;4.63;1.87;;;;;;;;;;5071940;28;20203;-48
2022/10/10 14:22:17;;;;;;;3.37;2.10;;;;;;;;;;5071370;28;20829;-45
2022/10/10 14:24:43;;;;;;;6.13;2.23;;;;;;;;;;5071444;28;20202;-48
2022/10/10 14:27:16;;;;;;;3.80;1.93;;;;;;;;;;5071303;28;20191;-46
2022/10/10 14:29:42;;;;;;;6.20;2.10;;;;;;;;;;5071293;28;20721;-46
2022/10/10 14:32:09;;;;;;;3.20;1.87;;;;;;;;;;5070907;28;20200;-47
2022/10/10 14:34:35;;;;;;;4.43;2.00;;;;;;;;;;5071471;28;20194;-46
2022/10/10 14:37:01;;;;;;;4.50;2.00;;;;;;;;;;5071182;28;20241;-46
2022/10/10 14:39:27;;;;;;;7.30;1.97;;;;;;;;;;5071439;28;20198;-47
2022/10/10 14:41:53;;;;;;;5.57;2.10;;;;;;;;;;5071367;28;20202;-47
2022/10/10 14:44:20;;;;;;;4.60;1.90;;;;;;;;;;5071398;28;20272;-47
2022/10/10 14:46:46;;;;;;;6.20;2.20;;;;;;;;;;5071107;28;20289;-47